Martz, Indiana
Current Conditions -  °F | °C
As of 3:25 PM on Sunday 25 Jan 2015 (Local Time) from KHUF Reporting Station
Haze Haze  
Wind Chill: 39°   Ceiling: 600
Heat Index: 39°   Visibility: 3mi
Dew Point: 37°   Wind: 3mph
Humidity: 93%   Direction: 90°E
Pressure: 29.61"   Gusts: NA
Location:  39.2653°N, 87.1094°W
Report Text: KHUF 252025Z 09003KT 3SM BR OVC006 04/03 A2961 RMK AO2 T00390028
Loading
Personal Weather Stations






























Interactive Weather Map New forecast layout! Learn more

10-Day Weather Forecast

Advertisements
Track Severe Weather on mobile